createdAt,value
2018-05-08T00:00:41.199Z,5.10
2018-05-08T00:03:08.653Z,5.73
2018-05-08T00:05:36.094Z,4.90
2018-05-08T00:08:03.555Z,4.20
2018-05-08T00:10:31.019Z,4.80
2018-05-08T00:12:58.462Z,3.40
2018-05-08T00:15:25.905Z,3.83
2018-05-08T00:17:53.354Z,4.90
2018-05-08T00:20:20.810Z,4.53
2018-05-08T00:22:48.257Z,5.50
2018-05-08T00:25:15.709Z,4.80
2018-05-08T00:27:43.167Z,3.90
2018-05-08T00:30:10.610Z,5.00
2018-05-08T00:32:38.056Z,4.77
2018-05-08T00:35:05.502Z,5.00
2018-05-08T00:37:32.941Z,4.50
2018-05-08T00:40:00.512Z,4.70
2018-05-08T00:42:28.040Z,5.67
2018-05-08T00:44:55.546Z,3.40
2018-05-08T00:47:22.990Z,4.40
2018-05-08T00:49:50.549Z,3.70
2018-05-08T00:52:18.130Z,4.27
2018-05-08T00:54:57.318Z,3.70
2018-05-08T00:57:24.761Z,3.53
2018-05-08T00:59:52.229Z,4.40
2018-05-08T01:02:19.689Z,3.90
2018-05-08T01:04:47.134Z,4.00
2018-05-08T01:07:14.626Z,4.50
2018-05-08T01:09:42.062Z,3.30
2018-05-08T01:12:09.519Z,4.30
2018-05-08T01:14:36.997Z,4.63
2018-05-08T01:17:04.522Z,3.70
2018-05-08T01:19:31.934Z,3.90
2018-05-08T01:21:59.382Z,4.30
2018-05-08T01:24:26.923Z,3.67
2018-05-08T01:26:54.382Z,4.30
2018-05-08T01:29:21.829Z,3.70
2018-05-08T01:31:49.283Z,3.53
2018-05-08T01:34:16.750Z,3.20
2018-05-08T01:36:44.215Z,3.47
2018-05-08T01:39:11.660Z,3.77
2018-05-08T01:41:39.139Z,4.07
2018-05-08T01:44:06.581Z,5.13
2018-05-08T01:46:34.031Z,4.00
2018-05-08T01:49:01.484Z,4.07
2018-05-08T01:51:28.929Z,3.43
2018-05-08T01:53:56.364Z,3.77
2018-05-08T01:56:23.824Z,3.83
2018-05-08T01:58:51.296Z,3.53
2018-05-08T02:01:18.750Z,4.10
2018-05-08T02:03:46.207Z,3.73
2018-05-08T02:06:13.649Z,3.90
2018-05-08T02:08:41.109Z,3.53
2018-05-08T02:11:08.549Z,4.30
2018-05-08T02:13:36.042Z,4.47
2018-05-08T02:16:03.558Z,4.20
2018-05-08T02:18:31.002Z,3.67
2018-05-08T02:20:58.481Z,3.90
2018-05-08T02:23:25.931Z,5.67
2018-05-08T02:25:53.392Z,4.47
2018-05-08T02:28:20.884Z,3.60
2018-05-08T02:30:48.326Z,3.93
2018-05-08T02:33:15.774Z,3.93
2018-05-08T02:35:43.222Z,4.73
2018-05-08T02:38:10.701Z,4.00
2018-05-08T02:40:38.153Z,4.37
2018-05-08T02:43:05.598Z,4.07
2018-05-08T02:45:33.039Z,4.40
2018-05-08T02:48:00.493Z,4.30
2018-05-08T02:50:27.944Z,4.23
2018-05-08T02:52:55.454Z,3.80
2018-05-08T02:55:22.891Z,3.90
2018-05-08T02:57:50.365Z,3.53
2018-05-08T03:00:17.843Z,3.90
2018-05-08T03:02:45.292Z,3.80
2018-05-08T03:05:12.771Z,3.90
2018-05-08T03:07:40.249Z,4.10
2018-05-08T03:10:07.695Z,3.87
2018-05-08T03:12:35.154Z,4.33
2018-05-08T03:15:02.600Z,4.67
2018-05-08T03:17:30.068Z,4.13
2018-05-08T03:19:57.497Z,3.73
2018-05-08T03:22:24.995Z,3.53
2018-05-08T03:24:52.416Z,3.53
2018-05-08T03:27:19.873Z,3.53
2018-05-08T03:29:48.182Z,4.03
2018-05-08T03:32:15.638Z,3.40
2018-05-08T03:34:43.146Z,3.87
2018-05-08T03:37:10.590Z,2.90
2018-05-08T03:39:38.069Z,3.13
2018-05-08T03:42:05.517Z,3.73
2018-05-08T03:44:33.014Z,3.17
2018-05-08T03:47:00.461Z,3.97
2018-05-08T03:49:27.922Z,3.50
2018-05-08T03:51:55.374Z,4.17
2018-05-08T03:54:22.822Z,6.47
2018-05-08T03:56:50.278Z,4.70
2018-05-08T03:59:17.722Z,4.40
2018-05-08T04:01:57.109Z,3.00
2018-05-08T04:04:36.366Z,3.63
2018-05-08T04:07:15.632Z,3.60
2018-05-08T04:09:43.082Z,4.13
2018-05-08T04:12:10.539Z,4.00
2018-05-08T04:14:37.981Z,3.70
2018-05-08T04:17:05.423Z,3.20
2018-05-08T04:19:32.878Z,3.97
2018-05-08T04:22:00.366Z,3.50
2018-05-08T04:24:27.865Z,4.30
2018-05-08T04:26:55.310Z,3.50
2018-05-08T04:29:22.768Z,2.77
2018-05-08T04:31:50.235Z,3.37
2018-05-08T04:34:17.727Z,3.50
2018-05-08T04:36:45.315Z,2.60
2018-05-08T04:39:12.767Z,2.90
2018-05-08T04:41:40.207Z,3.67
2018-05-08T04:44:07.703Z,3.30
2018-05-08T04:46:35.140Z,3.00
2018-05-08T04:49:02.582Z,3.97
2018-05-08T04:51:30.547Z,3.50
2018-05-08T04:53:57.994Z,3.00
2018-05-08T04:56:25.435Z,3.47
2018-05-08T04:58:53.006Z,3.60
2018-05-08T05:01:20.475Z,3.40
2018-05-08T05:03:47.990Z,3.63
2018-05-08T05:06:15.435Z,3.60
2018-05-08T05:08:42.907Z,5.63
2018-05-08T05:11:10.373Z,5.77
2018-05-08T05:13:37.823Z,5.67
2018-05-08T05:16:05.271Z,6.20
2018-05-08T05:18:32.726Z,5.80
2018-05-08T05:21:00.189Z,5.50
2018-05-08T05:23:27.633Z,6.40
2018-05-08T05:25:55.079Z,6.20
2018-05-08T05:28:22.534Z,6.77
2018-05-08T05:30:49.992Z,7.30
2018-05-08T05:33:17.446Z,5.23
2018-05-08T05:35:44.960Z,6.20
2018-05-08T05:38:12.412Z,6.83
2018-05-08T05:40:39.870Z,6.30
2018-05-08T05:43:07.322Z,7.27
2018-05-08T05:45:34.827Z,6.50
2018-05-08T05:48:02.271Z,7.43
2018-05-08T05:50:29.717Z,5.40
2018-05-08T05:52:57.166Z,6.70
2018-05-08T05:55:24.609Z,5.47
2018-05-08T05:57:52.062Z,5.60
2018-05-08T06:00:19.512Z,6.20
2018-05-08T06:02:46.961Z,5.20
2018-05-08T06:05:14.425Z,4.97
2018-05-08T06:07:41.882Z,6.17
2018-05-08T06:10:09.340Z,5.40
2018-05-08T06:12:36.790Z,4.80
2018-05-08T06:15:04.621Z,5.30
2018-05-08T06:17:32.110Z,5.57
2018-05-08T06:19:59.566Z,7.50
2018-05-08T06:22:27.018Z,7.00
2018-05-08T06:24:54.502Z,4.60
2018-05-08T06:27:21.975Z,25.00
2018-05-08T06:29:49.451Z,11.80
2018-05-08T06:32:16.926Z,4.77
2018-05-08T06:34:44.359Z,4.60
2018-05-08T06:37:11.810Z,4.70
2018-05-08T06:39:39.354Z,4.63
2018-05-08T06:42:06.826Z,4.27
2018-05-08T06:44:34.421Z,4.70
2018-05-08T06:47:01.847Z,5.10
2018-05-08T06:49:29.310Z,4.87
2018-05-08T06:51:56.775Z,5.27
2018-05-08T06:54:24.210Z,4.50
2018-05-08T06:56:51.670Z,3.80
2018-05-08T06:59:19.126Z,4.80
2018-05-08T07:01:46.597Z,4.50
2018-05-08T07:04:14.257Z,5.47
2018-05-08T07:06:41.714Z,4.77
2018-05-08T07:09:09.252Z,3.50
2018-05-08T07:11:36.627Z,3.40
2018-05-08T07:14:04.073Z,3.60
2018-05-08T07:16:31.596Z,4.00
2018-05-08T07:18:59.039Z,3.40
2018-05-08T07:21:26.505Z,3.47
2018-05-08T07:23:53.987Z,3.07
2018-05-08T07:26:21.436Z,2.73
2018-05-08T07:28:48.891Z,2.50
2018-05-08T07:31:16.331Z,3.33
2018-05-08T07:33:43.782Z,2.90
2018-05-08T07:36:11.217Z,2.93
2018-05-08T07:38:38.682Z,2.70
2018-05-08T07:41:06.121Z,3.17
2018-05-08T07:43:33.576Z,2.80
2018-05-08T07:46:01.024Z,3.10
2018-05-08T07:48:28.485Z,2.50
2018-05-08T07:50:55.925Z,3.10
2018-05-08T07:53:23.375Z,2.97
2018-05-08T07:55:50.826Z,3.10
2018-05-08T07:58:18.274Z,8.97
2018-05-08T08:00:45.727Z,3.57
2018-05-08T08:03:13.165Z,2.77
2018-05-08T08:05:40.650Z,2.50
2018-05-08T08:08:08.085Z,2.57
2018-05-08T08:10:35.533Z,3.10
2018-05-08T08:13:02.970Z,2.60
2018-05-08T08:15:30.431Z,2.90
2018-05-08T08:17:57.880Z,2.90
2018-05-08T08:20:25.327Z,2.80
2018-05-08T08:22:52.889Z,2.63
2018-05-08T08:25:20.363Z,2.40
2018-05-08T08:27:47.810Z,2.40
2018-05-08T08:30:15.256Z,2.40
2018-05-08T08:32:42.684Z,2.90
2018-05-08T08:35:10.142Z,2.63
2018-05-08T08:37:37.643Z,2.93
2018-05-08T08:40:05.082Z,2.13
2018-05-08T08:42:32.574Z,2.30
2018-05-08T08:45:00.017Z,3.10
2018-05-08T08:47:27.526Z,2.40
2018-05-08T08:49:54.912Z,2.43
2018-05-08T08:52:22.407Z,2.47
2018-05-08T08:54:49.890Z,2.67
2018-05-08T08:57:17.334Z,2.13
2018-05-08T08:59:44.783Z,2.57
2018-05-08T09:02:12.244Z,3.17
2018-05-08T09:04:39.672Z,2.40
2018-05-08T09:07:07.146Z,3.90
2018-05-08T09:09:34.621Z,3.67
2018-05-08T09:12:02.092Z,2.40
2018-05-08T09:14:29.535Z,2.80
2018-05-08T09:16:56.983Z,2.10
2018-05-08T09:19:24.482Z,1.97
2018-05-08T09:21:51.931Z,2.50
2018-05-08T09:24:19.370Z,2.40
2018-05-08T09:26:46.816Z,2.70
2018-05-08T09:29:14.252Z,2.27
2018-05-08T09:31:41.772Z,2.30
2018-05-08T09:34:09.219Z,2.47
2018-05-08T09:36:36.670Z,2.03
2018-05-08T09:39:04.117Z,2.40
2018-05-08T09:41:31.588Z,2.13
2018-05-08T09:43:59.051Z,2.10
2018-05-08T09:46:26.531Z,1.80
2018-05-08T09:48:54.075Z,2.10
2018-05-08T09:51:21.475Z,1.80
2018-05-08T09:53:48.917Z,2.83
2018-05-08T09:56:16.442Z,2.10
2018-05-08T09:58:43.914Z,2.30
2018-05-08T10:01:11.359Z,2.10
2018-05-08T10:03:38.821Z,2.00
2018-05-08T10:06:06.310Z,2.10
2018-05-08T10:08:33.761Z,2.20
2018-05-08T10:11:01.234Z,1.90
2018-05-08T10:13:28.676Z,2.00
2018-05-08T10:15:56.132Z,2.20
2018-05-08T10:18:23.582Z,1.90
2018-05-08T10:20:51.024Z,2.13
2018-05-08T10:23:18.454Z,2.43
2018-05-08T10:25:45.896Z,2.50
2018-05-08T10:28:13.346Z,1.90
2018-05-08T10:30:40.788Z,2.20
2018-05-08T10:33:08.228Z,2.60
2018-05-08T10:35:35.689Z,2.17
2018-05-08T10:38:03.129Z,1.87
2018-05-08T10:40:30.573Z,2.47
2018-05-08T10:42:58.012Z,2.57
2018-05-08T10:45:25.471Z,2.13
2018-05-08T10:47:52.928Z,2.23
2018-05-08T10:50:20.360Z,2.60
2018-05-08T10:52:47.802Z,3.27
2018-05-08T10:55:15.243Z,2.40
2018-05-08T10:57:42.712Z,2.20
2018-05-08T11:00:10.158Z,2.10
2018-05-08T11:02:37.618Z,1.57
2018-05-08T11:05:05.535Z,1.63
2018-05-08T11:07:33.014Z,2.00
2018-05-08T11:10:00.484Z,2.37
2018-05-08T11:12:28.280Z,2.00
2018-05-08T11:14:55.737Z,2.17
2018-05-08T11:17:23.184Z,1.77
2018-05-08T11:19:50.715Z,1.90
2018-05-08T11:22:18.083Z,1.80
2018-05-08T11:24:45.559Z,1.70
2018-05-08T11:27:13.100Z,1.63
2018-05-08T11:29:40.552Z,3.00
2018-05-08T11:32:08.026Z,1.80
2018-05-08T11:34:35.477Z,2.00
2018-05-08T11:37:02.934Z,1.60
2018-05-08T11:39:30.374Z,1.67
2018-05-08T11:41:57.942Z,1.60
2018-05-08T11:44:25.390Z,2.20
2018-05-08T11:46:52.891Z,6.87
2018-05-08T11:49:20.322Z,2.50
2018-05-08T11:51:47.787Z,1.73
2018-05-08T11:54:15.243Z,1.60
2018-05-08T11:56:42.801Z,2.17
2018-05-08T11:59:10.242Z,1.53
2018-05-08T12:01:37.675Z,1.47
2018-05-08T12:04:05.135Z,1.80
2018-05-08T12:06:32.607Z,1.70
2018-05-08T12:09:00.051Z,1.63
2018-05-08T12:11:27.503Z,1.80
2018-05-08T12:13:54.952Z,2.07
2018-05-08T12:16:22.414Z,2.70
2018-05-08T12:18:49.946Z,2.07
2018-05-08T12:21:17.452Z,1.83
2018-05-08T12:23:44.936Z,2.97
2018-05-08T12:26:17.321Z,2.33
2018-05-08T12:28:44.900Z,2.80
2018-05-08T12:31:12.421Z,2.80
2018-05-08T12:33:39.903Z,2.63
2018-05-08T12:36:07.407Z,2.10
2018-05-08T12:38:34.807Z,3.87
2018-05-08T12:41:02.364Z,1.80
2018-05-08T12:43:29.808Z,2.23
2018-05-08T12:45:57.262Z,2.60
2018-05-08T12:48:24.729Z,2.33
2018-05-08T12:50:52.315Z,2.23
2018-05-08T12:53:19.836Z,2.77
2018-05-08T12:55:47.311Z,2.00
2018-05-08T12:58:14.741Z,2.50
2018-05-08T13:00:42.198Z,2.73
2018-05-08T13:03:09.676Z,2.57
2018-05-08T13:05:38.155Z,2.87
2018-05-08T13:08:05.598Z,2.37
2018-05-08T13:10:33.052Z,2.03
2018-05-08T13:13:00.526Z,2.93
2018-05-08T13:15:27.979Z,2.83
2018-05-08T13:17:55.424Z,1.87
2018-05-08T13:20:23.815Z,2.67
2018-05-08T13:22:51.256Z,3.10
2018-05-08T13:25:18.686Z,1.50
2018-05-08T13:27:46.174Z,2.10
2018-05-08T13:30:13.616Z,1.97
2018-05-08T13:32:41.064Z,2.20
2018-05-08T13:35:08.520Z,1.70
2018-05-08T13:37:35.959Z,3.03
2018-05-08T13:40:03.478Z,2.47
2018-05-08T13:42:30.935Z,2.37
2018-05-08T13:44:58.405Z,1.87
2018-05-08T13:47:25.837Z,2.37
2018-05-08T13:49:53.281Z,2.93
2018-05-08T13:52:20.836Z,2.67
2018-05-08T13:54:48.283Z,2.90
2018-05-08T13:57:15.729Z,1.70
2018-05-08T13:59:43.194Z,2.20
2018-05-08T14:02:10.625Z,2.20
2018-05-08T14:04:38.076Z,2.23
2018-05-08T14:07:05.522Z,2.20
2018-05-08T14:09:33.108Z,2.33
2018-05-08T14:12:00.594Z,2.40
2018-05-08T14:14:28.089Z,2.13
2018-05-08T14:16:55.525Z,2.90
2018-05-08T14:19:23.063Z,1.50
2018-05-08T14:21:50.417Z,1.50
2018-05-08T14:24:17.858Z,2.33
2018-05-08T14:26:45.308Z,2.17
2018-05-08T14:29:12.792Z,3.00
2018-05-08T16:26:37.460Z,2.20
2018-05-08T16:29:04.913Z,1.90
2018-05-08T16:31:32.447Z,2.73
2018-05-08T16:33:59.877Z,1.90
2018-05-08T16:36:27.316Z,2.07
2018-05-08T16:38:54.776Z,2.67
2018-05-08T16:41:22.223Z,2.43
2018-05-08T16:43:49.669Z,3.10
2018-05-08T16:46:17.146Z,3.23
2018-05-08T16:48:44.606Z,1.80
2018-05-08T16:51:12.067Z,2.40
2018-05-08T16:53:39.522Z,2.83
2018-05-08T16:56:06.977Z,1.83
2018-05-08T16:58:34.516Z,2.60
2018-05-08T17:01:02.017Z,3.20
2018-05-08T17:03:29.467Z,2.10
2018-05-08T17:05:56.908Z,3.17
2018-05-08T17:08:24.394Z,1.80
2018-05-08T17:10:51.839Z,2.00
2018-05-08T17:13:19.290Z,3.10
2018-05-08T17:15:46.858Z,3.10
2018-05-08T17:18:14.357Z,2.40
2018-05-08T17:20:41.787Z,2.73
2018-05-08T17:23:09.749Z,2.00
2018-05-08T17:25:37.254Z,1.80
2018-05-08T17:28:04.645Z,2.03
2018-05-08T17:30:32.077Z,1.77
2018-05-08T17:32:59.561Z,2.00
2018-05-08T17:35:27.019Z,1.53
2018-05-08T17:37:54.499Z,3.70
2018-05-08T17:40:21.998Z,5.27
2018-05-08T17:42:49.450Z,4.10
2018-05-08T17:45:16.915Z,3.27
2018-05-08T17:47:44.367Z,5.30
2018-05-08T17:50:11.830Z,4.60
2018-05-08T17:52:39.299Z,2.70
2018-05-08T17:55:06.772Z,3.10
2018-05-08T17:57:34.266Z,4.53
2018-05-08T18:00:01.692Z,4.50
2018-05-08T18:02:29.166Z,3.17
2018-05-08T18:04:56.614Z,3.40
2018-05-08T18:07:24.054Z,4.50
2018-05-08T18:09:51.501Z,3.80
2018-05-08T18:12:18.955Z,2.70
2018-05-08T18:14:46.424Z,4.67
2018-05-08T18:17:14.034Z,3.43
2018-05-08T18:19:41.511Z,2.90
2018-05-08T18:22:09.000Z,3.67
2018-05-08T18:24:36.481Z,3.00
2018-05-08T18:27:03.932Z,4.13
2018-05-08T18:29:31.381Z,2.73
2018-05-08T18:31:58.878Z,4.87
2018-05-08T18:34:26.563Z,3.27
2018-05-08T18:36:54.071Z,3.93
2018-05-08T18:39:21.516Z,3.90
2018-05-08T18:41:49.047Z,3.60
2018-05-08T18:44:16.526Z,2.90
2018-05-08T18:46:44.138Z,3.77
2018-05-08T18:49:11.620Z,3.87
2018-05-08T18:51:39.080Z,3.17
2018-05-08T18:54:06.581Z,2.63
2018-05-08T18:56:34.063Z,2.53
2018-05-08T18:59:01.515Z,2.30
2018-05-08T19:01:28.980Z,2.93
2018-05-08T19:03:56.442Z,2.43
2018-05-08T19:06:24.060Z,2.27
2018-05-08T19:08:51.515Z,2.40
2018-05-08T19:11:25.062Z,2.73
2018-05-08T19:13:52.519Z,2.47
2018-05-08T19:16:19.954Z,3.10
2018-05-08T19:18:52.981Z,2.80
2018-05-08T19:21:20.440Z,2.30
2018-05-08T19:23:53.425Z,2.90
2018-05-08T19:26:21.873Z,3.00
2018-05-08T19:28:55.049Z,2.87
2018-05-08T19:31:22.518Z,2.30
2018-05-08T19:33:49.975Z,2.20
2018-05-08T19:36:23.211Z,2.90
2018-05-08T19:38:50.652Z,2.30
2018-05-08T19:41:18.100Z,2.80
2018-05-08T19:43:45.632Z,2.80
2018-05-08T19:46:13.104Z,2.50
2018-05-08T19:48:40.625Z,2.30
2018-05-08T19:51:08.090Z,2.33
2018-05-08T19:53:35.665Z,2.93
2018-05-08T19:56:03.154Z,2.70
2018-05-08T19:58:30.673Z,2.83
2018-05-08T20:00:58.125Z,2.80
2018-05-08T20:03:25.606Z,2.53
2018-05-08T20:05:53.054Z,1.93
2018-05-08T20:08:20.497Z,2.33
2018-05-08T20:10:47.964Z,2.73
2018-05-08T20:13:15.418Z,2.83
2018-05-08T20:15:42.883Z,3.10
2018-05-08T20:18:10.341Z,3.23
2018-05-08T20:20:37.818Z,3.03
2018-05-08T20:23:05.260Z,3.50
2018-05-08T20:25:32.781Z,3.80
2018-05-08T20:28:00.250Z,3.07
2018-05-08T20:30:27.680Z,3.30
2018-05-08T20:32:55.131Z,3.07
2018-05-08T20:35:22.604Z,3.33
2018-05-08T20:37:50.056Z,3.60
2018-05-08T20:40:17.515Z,2.93
2018-05-08T20:42:44.992Z,2.93
2018-05-08T20:45:12.432Z,2.80
2018-05-08T20:47:39.881Z,3.07
2018-05-08T20:50:07.346Z,3.33
2018-05-08T20:52:34.817Z,2.87
2018-05-08T20:55:02.262Z,2.83
2018-05-08T20:57:29.738Z,2.73
2018-05-08T20:59:57.212Z,3.13
2018-05-08T21:02:24.674Z,3.20
2018-05-08T21:04:52.202Z,2.90
2018-05-08T21:07:19.644Z,3.00
2018-05-08T21:09:47.122Z,3.20
2018-05-08T21:12:14.573Z,2.63
2018-05-08T21:14:42.033Z,3.27
2018-05-08T21:17:09.670Z,2.70
2018-05-08T21:19:37.106Z,2.80
2018-05-08T21:22:04.584Z,3.17
2018-05-08T21:24:32.042Z,3.60
2018-05-08T21:26:59.506Z,3.60
2018-05-08T21:29:32.586Z,3.53
2018-05-08T21:32:00.108Z,3.20
2018-05-08T21:34:27.549Z,3.10
2018-05-08T21:36:55.024Z,2.70
2018-05-08T21:39:22.542Z,3.33
2018-05-08T21:41:50.015Z,3.20
2018-05-08T21:44:17.553Z,4.40
2018-05-08T21:46:44.929Z,3.00
2018-05-08T21:49:12.388Z,3.63
2018-05-08T21:51:39.884Z,3.40
2018-05-08T21:54:07.373Z,3.43
2018-05-08T21:56:34.818Z,3.20
2018-05-08T21:59:02.267Z,3.37
2018-05-08T22:01:29.713Z,3.60
2018-05-08T22:03:57.206Z,4.27
2018-05-08T22:06:24.818Z,4.23
2018-05-08T22:08:52.322Z,4.13
2018-05-08T22:11:19.780Z,4.23
2018-05-08T22:13:47.218Z,4.00
2018-05-08T22:16:14.684Z,3.80
2018-05-08T22:18:42.130Z,3.80
2018-05-08T22:21:09.620Z,4.20
2018-05-08T22:23:37.081Z,4.20
2018-05-08T22:26:04.531Z,3.60
2018-05-08T22:28:31.965Z,3.83
2018-05-08T22:30:59.388Z,4.00
2018-05-08T22:33:26.833Z,3.50
2018-05-08T22:35:54.278Z,4.00
2018-05-08T22:38:21.737Z,4.00
2018-05-08T22:40:49.187Z,3.93
2018-05-08T22:43:16.635Z,3.50
2018-05-08T22:45:44.125Z,4.77
2018-05-08T22:48:11.564Z,4.20
2018-05-08T22:50:39.005Z,4.03
2018-05-08T22:53:06.438Z,3.60
2018-05-08T22:55:33.962Z,4.10
2018-05-08T22:58:01.432Z,4.17
2018-05-08T23:00:28.928Z,4.03
2018-05-08T23:02:56.374Z,3.50
2018-05-08T23:05:23.843Z,4.00
2018-05-08T23:07:51.302Z,4.40
2018-05-08T23:10:18.757Z,4.20
2018-05-08T23:12:46.212Z,3.77
2018-05-08T23:15:13.660Z,3.57
2018-05-08T23:17:41.131Z,4.77
2018-05-08T23:20:08.575Z,4.10
2018-05-08T23:22:36.031Z,3.70
2018-05-08T23:25:03.475Z,4.57
2018-05-08T23:27:30.942Z,3.60
2018-05-08T23:29:58.389Z,4.03
2018-05-08T23:32:25.832Z,3.83
2018-05-08T23:34:53.301Z,3.90
2018-05-08T23:37:20.750Z,3.70
2018-05-08T23:39:48.196Z,3.80
2018-05-08T23:42:15.644Z,4.27
2018-05-08T23:44:43.110Z,4.40
2018-05-08T23:47:10.559Z,3.80
2018-05-08T23:49:38.129Z,3.60
2018-05-08T23:52:05.475Z,3.43
2018-05-08T23:54:32.938Z,4.10
2018-05-08T23:57:00.382Z,3.53
2018-05-08T23:59:27.847Z,3.77
